sensor_id;sensor_type;location;lat;lon;timestamp;P1;durP1;ratioP1;P2;durP2;ratioP2
1262;SDS011;62267;50.112;8.704;2023-08-08T00:01:15;7.43;;;4.53;;
1262;SDS011;62267;50.112;8.704;2023-08-08T00:03:42;4.50;;;3.90;;
1262;SDS011;62267;50.112;8.704;2023-08-08T00:06:10;4.10;;;3.80;;
1262;SDS011;62267;50.112;8.704;2023-08-08T00:08:37;4.30;;;3.90;;
1262;SDS011;62267;50.112;8.704;2023-08-08T00:11:05;5.93;;;4.50;;
1262;SDS011;62267;50.112;8.704;2023-08-08T00:13:32;5.47;;;4.13;;
1262;SDS011;62267;50.112;8.704;2023-08-08T00:16:00;6.00;;;4.10;;
1262;SDS011;62267;50.112;8.704;2023-08-08T00:18:27;7.03;;;4.80;;
1262;SDS011;62267;50.112;8.704;2023-08-08T00:20:55;8.43;;;4.27;;
1262;SDS011;62267;50.112;8.704;2023-08-08T00:23:23;4.70;;;3.70;;
1262;SDS011;62267;50.112;8.704;2023-08-08T00:25:50;4.90;;;4.33;;
1262;SDS011;62267;50.112;8.704;2023-08-08T00:28:19;4.93;;;4.00;;
1262;SDS011;62267;50.112;8.704;2023-08-08T00:30:46;5.50;;;3.80;;
1262;SDS011;62267;50.112;8.704;2023-08-08T00:33:13;5.83;;;3.80;;
1262;SDS011;62267;50.112;8.704;2023-08-08T00:35:42;4.10;;;3.80;;
1262;SDS011;62267;50.112;8.704;2023-08-08T00:38:10;5.00;;;4.60;;
1262;SDS011;62267;50.112;8.704;2023-08-08T00:40:37;4.10;;;3.80;;
1262;SDS011;62267;50.112;8.704;2023-08-08T00:43:05;4.53;;;4.20;;
1262;SDS011;62267;50.112;8.704;2023-08-08T00:45:32;6.20;;;4.07;;
1262;SDS011;62267;50.112;8.704;2023-08-08T00:47:59;5.80;;;4.43;;
1262;SDS011;62267;50.112;8.704;2023-08-08T00:50:27;4.37;;;3.97;;
1262;SDS011;62267;50.112;8.704;2023-08-08T00:52:55;4.27;;;3.87;;
1262;SDS011;62267;50.112;8.704;2023-08-08T00:55:23;4.93;;;4.43;;
1262;SDS011;62267;50.112;8.704;2023-08-08T00:57:50;4.63;;;4.23;;
1262;SDS011;62267;50.112;8.704;2023-08-08T01:00:18;5.20;;;4.80;;
1262;SDS011;62267;50.112;8.704;2023-08-08T01:02:46;6.07;;;4.60;;
1262;SDS011;62267;50.112;8.704;2023-08-08T01:05:14;7.20;;;5.17;;
1262;SDS011;62267;50.112;8.704;2023-08-08T01:07:50;5.33;;;4.00;;
1262;SDS011;62267;50.112;8.704;2023-08-08T01:10:38;5.50;;;4.30;;
1262;SDS011;62267;50.112;8.704;2023-08-08T01:13:11;5.43;;;4.60;;
1262;SDS011;62267;50.112;8.704;2023-08-08T01:15:39;4.90;;;4.00;;
1262;SDS011;62267;50.112;8.704;2023-08-08T01:18:07;4.60;;;4.17;;
1262;SDS011;62267;50.112;8.704;2023-08-08T01:20:35;4.70;;;4.30;;
1262;SDS011;62267;50.112;8.704;2023-08-08T01:25:31;4.60;;;4.13;;
1262;SDS011;62267;50.112;8.704;2023-08-08T01:27:58;7.07;;;3.80;;
1262;SDS011;62267;50.112;8.704;2023-08-08T01:30:26;5.90;;;3.93;;
1262;SDS011;62267;50.112;8.704;2023-08-08T01:32:53;5.53;;;4.00;;
1262;SDS011;62267;50.112;8.704;2023-08-08T01:35:20;4.87;;;4.00;;
1262;SDS011;62267;50.112;8.704;2023-08-08T01:37:49;4.83;;;4.43;;
1262;SDS011;62267;50.112;8.704;2023-08-08T01:40:17;4.73;;;4.33;;
1262;SDS011;62267;50.112;8.704;2023-08-08T01:42:46;4.60;;;3.90;;
1262;SDS011;62267;50.112;8.704;2023-08-08T01:45:15;7.80;;;4.53;;
1262;SDS011;62267;50.112;8.704;2023-08-08T01:47:43;4.70;;;4.07;;
1262;SDS011;62267;50.112;8.704;2023-08-08T01:50:16;5.00;;;4.50;;
1262;SDS011;62267;50.112;8.704;2023-08-08T01:52:44;5.33;;;4.30;;
1262;SDS011;62267;50.112;8.704;2023-08-08T01:55:11;4.93;;;4.40;;
1262;SDS011;62267;50.112;8.704;2023-08-08T01:57:39;7.43;;;4.70;;
1262;SDS011;62267;50.112;8.704;2023-08-08T02:00:07;5.13;;;4.60;;
1262;SDS011;62267;50.112;8.704;2023-08-08T02:02:42;4.93;;;4.43;;
1262;SDS011;62267;50.112;8.704;2023-08-08T02:05:10;4.60;;;4.20;;
1262;SDS011;62267;50.112;8.704;2023-08-08T02:07:38;4.37;;;3.97;;
1262;SDS011;62267;50.112;8.704;2023-08-08T02:10:06;5.07;;;4.67;;
1262;SDS011;62267;50.112;8.704;2023-08-08T02:12:33;5.07;;;4.43;;
1262;SDS011;62267;50.112;8.704;2023-08-08T02:15:01;5.47;;;4.30;;
1262;SDS011;62267;50.112;8.704;2023-08-08T02:17:29;4.60;;;4.20;;
1262;SDS011;62267;50.112;8.704;2023-08-08T02:19:57;4.43;;;4.10;;
1262;SDS011;62267;50.112;8.704;2023-08-08T02:22:24;4.73;;;4.40;;
1262;SDS011;62267;50.112;8.704;2023-08-08T02:24:52;8.03;;;5.00;;
1262;SDS011;62267;50.112;8.704;2023-08-08T02:27:20;4.53;;;4.23;;
1262;SDS011;62267;50.112;8.704;2023-08-08T02:29:47;5.80;;;4.40;;
1262;SDS011;62267;50.112;8.704;2023-08-08T02:32:15;5.40;;;4.63;;
1262;SDS011;62267;50.112;8.704;2023-08-08T02:34:42;4.57;;;4.27;;
1262;SDS011;62267;50.112;8.704;2023-08-08T02:37:12;4.30;;;4.00;;
1262;SDS011;62267;50.112;8.704;2023-08-08T02:39:40;6.33;;;5.07;;
1262;SDS011;62267;50.112;8.704;2023-08-08T02:42:08;4.80;;;4.40;;
1262;SDS011;62267;50.112;8.704;2023-08-08T02:44:36;5.10;;;4.60;;
1262;SDS011;62267;50.112;8.704;2023-08-08T02:47:03;4.57;;;4.23;;
1262;SDS011;62267;50.112;8.704;2023-08-08T02:49:31;5.13;;;4.30;;
1262;SDS011;62267;50.112;8.704;2023-08-08T02:52:00;5.50;;;5.00;;
1262;SDS011;62267;50.112;8.704;2023-08-08T02:54:31;6.60;;;5.27;;
1262;SDS011;62267;50.112;8.704;2023-08-08T02:56:58;4.90;;;4.50;;
1262;SDS011;62267;50.112;8.704;2023-08-08T02:59:25;7.60;;;4.50;;
1262;SDS011;62267;50.112;8.704;2023-08-08T03:01:54;5.57;;;4.93;;
1262;SDS011;62267;50.112;8.704;2023-08-08T03:04:21;5.97;;;5.13;;
1262;SDS011;62267;50.112;8.704;2023-08-08T03:06:49;5.63;;;5.13;;
1262;SDS011;62267;50.112;8.704;2023-08-08T03:09:18;5.70;;;5.17;;
1262;SDS011;62267;50.112;8.704;2023-08-08T03:11:46;6.53;;;4.90;;
1262;SDS011;62267;50.112;8.704;2023-08-08T03:14:15;5.43;;;4.90;;
1262;SDS011;62267;50.112;8.704;2023-08-08T03:16:43;5.27;;;4.77;;
1262;SDS011;62267;50.112;8.704;2023-08-08T03:19:11;5.80;;;4.53;;
1262;SDS011;62267;50.112;8.704;2023-08-08T03:21:39;5.00;;;4.60;;
1262;SDS011;62267;50.112;8.704;2023-08-08T03:24:06;4.83;;;4.40;;
1262;SDS011;62267;50.112;8.704;2023-08-08T03:26:34;5.17;;;4.77;;
1262;SDS011;62267;50.112;8.704;2023-08-08T03:29:01;5.27;;;4.87;;
1262;SDS011;62267;50.112;8.704;2023-08-08T03:31:36;4.73;;;4.33;;
1262;SDS011;62267;50.112;8.704;2023-08-08T03:34:04;5.03;;;4.63;;
1262;SDS011;62267;50.112;8.704;2023-08-08T03:36:33;4.83;;;4.43;;
1262;SDS011;62267;50.112;8.704;2023-08-08T03:39:01;4.83;;;4.43;;
1262;SDS011;62267;50.112;8.704;2023-08-08T03:41:30;4.13;;;3.83;;
1262;SDS011;62267;50.112;8.704;2023-08-08T03:43:58;4.67;;;4.23;;
1262;SDS011;62267;50.112;8.704;2023-08-08T03:46:25;5.63;;;4.73;;
1262;SDS011;62267;50.112;8.704;2023-08-08T03:48:53;5.10;;;4.70;;
1262;SDS011;62267;50.112;8.704;2023-08-08T03:51:21;4.73;;;4.33;;
1262;SDS011;62267;50.112;8.704;2023-08-08T03:53:48;6.53;;;4.23;;
1262;SDS011;62267;50.112;8.704;2023-08-08T03:56:16;5.97;;;4.63;;
1262;SDS011;62267;50.112;8.704;2023-08-08T03:58:43;4.53;;;4.10;;
1262;SDS011;62267;50.112;8.704;2023-08-08T04:01:11;4.70;;;4.30;;
1262;SDS011;62267;50.112;8.704;2023-08-08T04:03:39;4.60;;;4.20;;
1262;SDS011;62267;50.112;8.704;2023-08-08T04:06:06;6.77;;;4.90;;
1262;SDS011;62267;50.112;8.704;2023-08-08T04:08:34;4.80;;;4.40;;
1262;SDS011;62267;50.112;8.704;2023-08-08T04:11:01;4.53;;;4.13;;
1262;SDS011;62267;50.112;8.704;2023-08-08T04:13:29;5.10;;;4.70;;
1262;SDS011;62267;50.112;8.704;2023-08-08T04:15:56;4.63;;;4.33;;
1262;SDS011;62267;50.112;8.704;2023-08-08T04:18:24;6.00;;;5.50;;
1262;SDS011;62267;50.112;8.704;2023-08-08T04:20:52;5.13;;;4.70;;
1262;SDS011;62267;50.112;8.704;2023-08-08T04:23:20;5.80;;;5.40;;
1262;SDS011;62267;50.112;8.704;2023-08-08T04:25:49;7.53;;;5.33;;
1262;SDS011;62267;50.112;8.704;2023-08-08T04:28:16;4.73;;;4.23;;
1262;SDS011;62267;50.112;8.704;2023-08-08T04:30:44;3.90;;;3.60;;
1262;SDS011;62267;50.112;8.704;2023-08-08T04:33:12;4.53;;;4.10;;
1262;SDS011;62267;50.112;8.704;2023-08-08T04:35:39;4.47;;;4.10;;
1262;SDS011;62267;50.112;8.704;2023-08-08T04:38:08;4.30;;;3.90;;
1262;SDS011;62267;50.112;8.704;2023-08-08T04:40:35;6.10;;;4.40;;
1262;SDS011;62267;50.112;8.704;2023-08-08T04:43:04;4.00;;;3.60;;
1262;SDS011;62267;50.112;8.704;2023-08-08T04:45:32;5.50;;;4.17;;
1262;SDS011;62267;50.112;8.704;2023-08-08T04:48:00;6.30;;;4.20;;
1262;SDS011;62267;50.112;8.704;2023-08-08T04:50:27;5.10;;;4.70;;
1262;SDS011;62267;50.112;8.704;2023-08-08T04:52:55;3.90;;;3.50;;
1262;SDS011;62267;50.112;8.704;2023-08-08T04:55:23;4.60;;;4.00;;
1262;SDS011;62267;50.112;8.704;2023-08-08T04:57:51;4.20;;;3.80;;
1262;SDS011;62267;50.112;8.704;2023-08-08T05:00:18;3.90;;;3.60;;
1262;SDS011;62267;50.112;8.704;2023-08-08T05:02:46;4.00;;;3.70;;
1262;SDS011;62267;50.112;8.704;2023-08-08T05:05:13;4.83;;;4.53;;
1262;SDS011;62267;50.112;8.704;2023-08-08T05:07:41;4.37;;;3.87;;
1262;SDS011;62267;50.112;8.704;2023-08-08T05:10:08;5.40;;;4.90;;
1262;SDS011;62267;50.112;8.704;2023-08-08T05:12:36;4.37;;;4.03;;
1262;SDS011;62267;50.112;8.704;2023-08-08T05:15:05;4.33;;;3.93;;
1262;SDS011;62267;50.112;8.704;2023-08-08T05:17:33;4.67;;;4.27;;
1262;SDS011;62267;50.112;8.704;2023-08-08T05:20:01;5.80;;;4.33;;
1262;SDS011;62267;50.112;8.704;2023-08-08T05:22:29;4.80;;;4.23;;
1262;SDS011;62267;50.112;8.704;2023-08-08T05:24:57;4.60;;;4.20;;
1262;SDS011;62267;50.112;8.704;2023-08-08T05:27:24;5.23;;;4.80;;
1262;SDS011;62267;50.112;8.704;2023-08-08T05:29:52;3.93;;;3.63;;
1262;SDS011;62267;50.112;8.704;2023-08-08T05:32:19;4.50;;;4.10;;
1262;SDS011;62267;50.112;8.704;2023-08-08T05:34:47;4.67;;;4.37;;
1262;SDS011;62267;50.112;8.704;2023-08-08T05:37:16;5.60;;;4.30;;
1262;SDS011;62267;50.112;8.704;2023-08-08T05:39:44;5.03;;;4.30;;
1262;SDS011;62267;50.112;8.704;2023-08-08T05:42:11;5.80;;;4.53;;
1262;SDS011;62267;50.112;8.704;2023-08-08T05:44:39;4.63;;;4.10;;
1262;SDS011;62267;50.112;8.704;2023-08-08T05:47:08;6.43;;;4.60;;
1262;SDS011;62267;50.112;8.704;2023-08-08T05:49:36;4.93;;;4.43;;
1262;SDS011;62267;50.112;8.704;2023-08-08T05:52:04;4.20;;;3.77;;
1262;SDS011;62267;50.112;8.704;2023-08-08T05:54:32;4.10;;;3.50;;
1262;SDS011;62267;50.112;8.704;2023-08-08T05:57:01;4.27;;;3.93;;
1262;SDS011;62267;50.112;8.704;2023-08-08T05:59:29;4.13;;;3.73;;
1262;SDS011;62267;50.112;8.704;2023-08-08T06:01:56;4.60;;;4.17;;
1262;SDS011;62267;50.112;8.704;2023-08-08T06:04:26;4.87;;;3.50;;
1262;SDS011;62267;50.112;8.704;2023-08-08T06:06:53;4.63;;;3.93;;
1262;SDS011;62267;50.112;8.704;2023-08-08T06:09:21;4.73;;;3.77;;
1262;SDS011;62267;50.112;8.704;2023-08-08T06:11:49;6.00;;;4.47;;
1262;SDS011;62267;50.112;8.704;2023-08-08T06:14:17;4.87;;;4.43;;
1262;SDS011;62267;50.112;8.704;2023-08-08T06:16:44;4.23;;;3.47;;
1262;SDS011;62267;50.112;8.704;2023-08-08T06:19:13;3.60;;;3.30;;
1262;SDS011;62267;50.112;8.704;2023-08-08T06:21:42;4.27;;;3.77;;
1262;SDS011;62267;50.112;8.704;2023-08-08T06:24:09;3.43;;;3.10;;
1262;SDS011;62267;50.112;8.704;2023-08-08T06:26:37;3.70;;;3.40;;
1262;SDS011;62267;50.112;8.704;2023-08-08T06:29:05;6.20;;;3.70;;
1262;SDS011;62267;50.112;8.704;2023-08-08T06:31:32;4.53;;;3.80;;
1262;SDS011;62267;50.112;8.704;2023-08-08T06:33:59;5.20;;;3.60;;
1262;SDS011;62267;50.112;8.704;2023-08-08T06:36:27;4.10;;;3.63;;
1262;SDS011;62267;50.112;8.704;2023-08-08T06:38:55;6.07;;;3.60;;
1262;SDS011;62267;50.112;8.704;2023-08-08T06:41:41;4.83;;;3.20;;
1262;SDS011;62267;50.112;8.704;2023-08-08T06:44:27;3.80;;;3.10;;
1262;SDS011;62267;50.112;8.704;2023-08-08T06:46:57;5.13;;;3.77;;
1262;SDS011;62267;50.112;8.704;2023-08-08T06:49:25;4.73;;;3.80;;
1262;SDS011;62267;50.112;8.704;2023-08-08T06:51:52;4.90;;;4.40;;
1262;SDS011;62267;50.112;8.704;2023-08-08T06:54:19;4.53;;;3.57;;
1262;SDS011;62267;50.112;8.704;2023-08-08T06:56:46;6.70;;;6.00;;
1262;SDS011;62267;50.112;8.704;2023-08-08T06:59:14;5.70;;;5.13;;
1262;SDS011;62267;50.112;8.704;2023-08-08T07:01:41;3.77;;;3.43;;
1262;SDS011;62267;50.112;8.704;2023-08-08T07:04:08;4.07;;;3.70;;
1262;SDS011;62267;50.112;8.704;2023-08-08T07:06:35;3.93;;;3.50;;
1262;SDS011;62267;50.112;8.704;2023-08-08T07:09:03;4.53;;;4.00;;
1262;SDS011;62267;50.112;8.704;2023-08-08T07:11:30;3.87;;;3.57;;
1262;SDS011;62267;50.112;8.704;2023-08-08T07:13:57;8.43;;;3.43;;
1262;SDS011;62267;50.112;8.704;2023-08-08T07:16:24;3.43;;;3.13;;
1262;SDS011;62267;50.112;8.704;2023-08-08T07:18:52;6.80;;;3.83;;
1262;SDS011;62267;50.112;8.704;2023-08-08T07:21:22;3.70;;;3.40;;
1262;SDS011;62267;50.112;8.704;2023-08-08T07:23:49;3.00;;;2.80;;
1262;SDS011;62267;50.112;8.704;2023-08-08T07:26:16;3.90;;;2.70;;
1262;SDS011;62267;50.112;8.704;2023-08-08T07:28:43;4.83;;;3.10;;
1262;SDS011;62267;50.112;8.704;2023-08-08T07:31:11;4.87;;;3.37;;
1262;SDS011;62267;50.112;8.704;2023-08-08T07:33:38;3.00;;;2.80;;
1262;SDS011;62267;50.112;8.704;2023-08-08T07:36:06;3.40;;;3.10;;
1262;SDS011;62267;50.112;8.704;2023-08-08T07:38:33;3.00;;;2.80;;
1262;SDS011;62267;50.112;8.704;2023-08-08T07:41:00;3.07;;;2.87;;
1262;SDS011;62267;50.112;8.704;2023-08-08T07:43:28;3.40;;;3.20;;
1262;SDS011;62267;50.112;8.704;2023-08-08T07:45:55;3.40;;;3.17;;
1262;SDS011;62267;50.112;8.704;2023-08-08T07:48:22;4.70;;;2.90;;
1262;SDS011;62267;50.112;8.704;2023-08-08T07:50:49;3.60;;;2.70;;
1262;SDS011;62267;50.112;8.704;2023-08-08T07:53:17;2.90;;;2.53;;
1262;SDS011;62267;50.112;8.704;2023-08-08T07:55:44;3.60;;;2.70;;
1262;SDS011;62267;50.112;8.704;2023-08-08T07:58:11;3.40;;;2.90;;
1262;SDS011;62267;50.112;8.704;2023-08-08T08:00:38;2.57;;;2.37;;
1262;SDS011;62267;50.112;8.704;2023-08-08T08:03:05;4.60;;;2.87;;
1262;SDS011;62267;50.112;8.704;2023-08-08T08:05:33;3.13;;;2.83;;
1262;SDS011;62267;50.112;8.704;2023-08-08T08:08:01;3.63;;;3.00;;
1262;SDS011;62267;50.112;8.704;2023-08-08T08:10:29;2.87;;;2.73;;
1262;SDS011;62267;50.112;8.704;2023-08-08T08:12:56;2.43;;;2.23;;
1262;SDS011;62267;50.112;8.704;2023-08-08T08:15:25;2.77;;;2.53;;
1262;SDS011;62267;50.112;8.704;2023-08-08T08:17:52;2.63;;;2.53;;
1262;SDS011;62267;50.112;8.704;2023-08-08T08:20:20;2.70;;;2.50;;
1262;SDS011;62267;50.112;8.704;2023-08-08T08:22:47;3.37;;;2.57;;
1262;SDS011;62267;50.112;8.704;2023-08-08T08:25:14;2.83;;;2.63;;
1262;SDS011;62267;50.112;8.704;2023-08-08T08:27:42;3.90;;;3.60;;
1262;SDS011;62267;50.112;8.704;2023-08-08T08:30:09;3.10;;;2.77;;
1262;SDS011;62267;50.112;8.704;2023-08-08T08:32:40;2.77;;;2.57;;
1262;SDS011;62267;50.112;8.704;2023-08-08T08:35:07;4.30;;;2.50;;
1262;SDS011;62267;50.112;8.704;2023-08-08T08:37:35;2.87;;;2.63;;
1262;SDS011;62267;50.112;8.704;2023-08-08T08:40:02;4.13;;;2.87;;
1262;SDS011;62267;50.112;8.704;2023-08-08T08:42:33;3.17;;;2.73;;
1262;SDS011;62267;50.112;8.704;2023-08-08T08:45:01;3.00;;;2.50;;
1262;SDS011;62267;50.112;8.704;2023-08-08T08:47:30;3.07;;;2.77;;
1262;SDS011;62267;50.112;8.704;2023-08-08T08:49:58;3.37;;;3.07;;
1262;SDS011;62267;50.112;8.704;2023-08-08T08:52:27;2.70;;;2.50;;
1262;SDS011;62267;50.112;8.704;2023-08-08T08:54:54;4.83;;;2.60;;
1262;SDS011;62267;50.112;8.704;2023-08-08T08:57:22;2.70;;;2.60;;
1262;SDS011;62267;50.112;8.704;2023-08-08T08:59:52;3.17;;;2.70;;
1262;SDS011;62267;50.112;8.704;2023-08-08T09:02:19;3.30;;;2.67;;
1262;SDS011;62267;50.112;8.704;2023-08-08T09:04:47;2.80;;;2.53;;
1262;SDS011;62267;50.112;8.704;2023-08-08T09:07:15;3.33;;;2.57;;
1262;SDS011;62267;50.112;8.704;2023-08-08T09:09:43;2.80;;;2.60;;
1262;SDS011;62267;50.112;8.704;2023-08-08T09:12:10;2.60;;;2.40;;
1262;SDS011;62267;50.112;8.704;2023-08-08T09:14:39;2.50;;;2.30;;
1262;SDS011;62267;50.112;8.704;2023-08-08T09:17:11;6.33;;;2.77;;
1262;SDS011;62267;50.112;8.704;2023-08-08T09:19:45;3.50;;;2.70;;
1262;SDS011;62267;50.112;8.704;2023-08-08T09:22:13;3.67;;;3.03;;
1262;SDS011;62267;50.112;8.704;2023-08-08T09:24:41;3.10;;;2.90;;
1262;SDS011;62267;50.112;8.704;2023-08-08T09:27:08;3.00;;;2.80;;
1262;SDS011;62267;50.112;8.704;2023-08-08T09:29:36;3.17;;;2.87;;
1262;SDS011;62267;50.112;8.704;2023-08-08T09:32:04;3.17;;;2.87;;
1262;SDS011;62267;50.112;8.704;2023-08-08T09:34:31;3.20;;;2.90;;
1262;SDS011;62267;50.112;8.704;2023-08-08T09:36:59;8.57;;;2.83;;
1262;SDS011;62267;50.112;8.704;2023-08-08T09:39:27;3.00;;;2.80;;
1262;SDS011;62267;50.112;8.704;2023-08-08T09:41:55;3.53;;;3.23;;
1262;SDS011;62267;50.112;8.704;2023-08-08T09:44:23;4.57;;;2.87;;
1262;SDS011;62267;50.112;8.704;2023-08-08T09:46:52;3.23;;;2.70;;
1262;SDS011;62267;50.112;8.704;2023-08-08T09:49:20;5.53;;;3.70;;
1262;SDS011;62267;50.112;8.704;2023-08-08T09:51:49;3.43;;;3.13;;
1262;SDS011;62267;50.112;8.704;2023-08-08T09:54:17;4.03;;;2.97;;
1262;SDS011;62267;50.112;8.704;2023-08-08T09:56:44;5.67;;;3.30;;
1262;SDS011;62267;50.112;8.704;2023-08-08T09:59:11;3.47;;;2.63;;
1262;SDS011;62267;50.112;8.704;2023-08-08T10:01:40;4.03;;;2.90;;
1262;SDS011;62267;50.112;8.704;2023-08-08T10:04:08;3.20;;;3.00;;
1262;SDS011;62267;50.112;8.704;2023-08-08T10:06:36;5.50;;;3.30;;
1262;SDS011;62267;50.112;8.704;2023-08-08T10:09:04;3.77;;;3.40;;
1262;SDS011;62267;50.112;8.704;2023-08-08T10:11:31;3.10;;;2.90;;
1262;SDS011;62267;50.112;8.704;2023-08-08T10:14:01;3.37;;;3.07;;
1262;SDS011;62267;50.112;8.704;2023-08-08T10:16:31;3.30;;;3.03;;
1262;SDS011;62267;50.112;8.704;2023-08-08T10:18:59;3.70;;;3.07;;
1262;SDS011;62267;50.112;8.704;2023-08-08T10:21:27;4.87;;;3.20;;
1262;SDS011;62267;50.112;8.704;2023-08-08T10:24:04;3.33;;;2.70;;
1262;SDS011;62267;50.112;8.704;2023-08-08T10:26:33;3.87;;;2.90;;
1262;SDS011;62267;50.112;8.704;2023-08-08T10:29:00;4.40;;;2.93;;
1262;SDS011;62267;50.112;8.704;2023-08-08T10:31:33;3.47;;;3.00;;
1262;SDS011;62267;50.112;8.704;2023-08-08T10:34:02;6.00;;;3.80;;
1262;SDS011;62267;50.112;8.704;2023-08-08T10:36:43;6.53;;;2.77;;
1262;SDS011;62267;50.112;8.704;2023-08-08T10:39:14;3.57;;;2.90;;
1262;SDS011;62267;50.112;8.704;2023-08-08T10:41:46;3.53;;;3.23;;
1262;SDS011;62267;50.112;8.704;2023-08-08T10:44:20;4.10;;;3.00;;
1262;SDS011;62267;50.112;8.704;2023-08-08T10:46:49;3.57;;;2.70;;
1262;SDS011;62267;50.112;8.704;2023-08-08T10:49:17;3.70;;;2.80;;
1262;SDS011;62267;50.112;8.704;2023-08-08T10:51:45;3.20;;;2.90;;
1262;SDS011;62267;50.112;8.704;2023-08-08T10:54:14;3.07;;;2.87;;
1262;SDS011;62267;50.112;8.704;2023-08-08T10:56:47;3.47;;;3.27;;
1262;SDS011;62267;50.112;8.704;2023-08-08T10:59:15;3.43;;;3.00;;
1262;SDS011;62267;50.112;8.704;2023-08-08T11:01:46;3.70;;;3.30;;
1262;SDS011;62267;50.112;8.704;2023-08-08T11:04:20;5.43;;;3.10;;
1262;SDS011;62267;50.112;8.704;2023-08-08T11:06:47;3.30;;;3.10;;
1262;SDS011;62267;50.112;8.704;2023-08-08T11:09:16;2.70;;;2.50;;
1262;SDS011;62267;50.112;8.704;2023-08-08T11:11:44;3.40;;;3.10;;
1262;SDS011;62267;50.112;8.704;2023-08-08T11:14:15;4.90;;;2.70;;
1262;SDS011;62267;50.112;8.704;2023-08-08T11:16:44;3.17;;;2.90;;
1262;SDS011;62267;50.112;8.704;2023-08-08T11:19:12;3.00;;;2.60;;
1262;SDS011;62267;50.112;8.704;2023-08-08T11:21:40;3.10;;;2.90;;
1262;SDS011;62267;50.112;8.704;2023-08-08T11:24:08;5.17;;;3.83;;
1262;SDS011;62267;50.112;8.704;2023-08-08T11:26:36;3.37;;;3.07;;
1262;SDS011;62267;50.112;8.704;2023-08-08T11:29:04;3.93;;;3.30;;
1262;SDS011;62267;50.112;8.704;2023-08-08T11:31:34;3.20;;;2.90;;
1262;SDS011;62267;50.112;8.704;2023-08-08T11:34:02;3.60;;;3.33;;
1262;SDS011;62267;50.112;8.704;2023-08-08T11:36:31;4.00;;;3.63;;
1262;SDS011;62267;50.112;8.704;2023-08-08T11:39:02;3.30;;;3.07;;
1262;SDS011;62267;50.112;8.704;2023-08-08T11:41:37;3.40;;;3.10;;
1262;SDS011;62267;50.112;8.704;2023-08-08T11:44:04;3.97;;;3.13;;
1262;SDS011;62267;50.112;8.704;2023-08-08T11:46:34;2.97;;;2.77;;
1262;SDS011;62267;50.112;8.704;2023-08-08T11:49:02;4.20;;;3.30;;
1262;SDS011;62267;50.112;8.704;2023-08-08T11:51:30;3.00;;;2.80;;
1262;SDS011;62267;50.112;8.704;2023-08-08T11:53:57;3.60;;;3.30;;
1262;SDS011;62267;50.112;8.704;2023-08-08T11:56:26;4.00;;;3.03;;
1262;SDS011;62267;50.112;8.704;2023-08-08T11:58:55;2.87;;;2.67;;
1262;SDS011;62267;50.112;8.704;2023-08-08T12:01:22;2.77;;;2.57;;
1262;SDS011;62267;50.112;8.704;2023-08-08T12:03:51;5.10;;;3.47;;
1262;SDS011;62267;50.112;8.704;2023-08-08T12:06:18;3.30;;;3.00;;
1262;SDS011;62267;50.112;8.704;2023-08-08T12:08:46;3.23;;;3.03;;
1262;SDS011;62267;50.112;8.704;2023-08-08T12:11:14;5.57;;;2.80;;
1262;SDS011;62267;50.112;8.704;2023-08-08T12:13:42;3.83;;;2.73;;
1262;SDS011;62267;50.112;8.704;2023-08-08T12:16:11;2.90;;;2.70;;
1262;SDS011;62267;50.112;8.704;2023-08-08T12:18:43;4.17;;;3.20;;
1262;SDS011;62267;50.112;8.704;2023-08-08T12:21:11;3.47;;;3.27;;
1262;SDS011;62267;50.112;8.704;2023-08-08T12:23:39;3.90;;;2.83;;
1262;SDS011;62267;50.112;8.704;2023-08-08T12:26:06;3.63;;;2.80;;
1262;SDS011;62267;50.112;8.704;2023-08-08T12:28:34;3.00;;;2.70;;
1262;SDS011;62267;50.112;8.704;2023-08-08T12:31:02;4.07;;;2.83;;
1262;SDS011;62267;50.112;8.704;2023-08-08T12:33:29;3.10;;;2.80;;
1262;SDS011;62267;50.112;8.704;2023-08-08T12:35:56;3.13;;;2.93;;
1262;SDS011;62267;50.112;8.704;2023-08-08T12:38:24;4.07;;;3.70;;
1262;SDS011;62267;50.112;8.704;2023-08-08T12:40:51;3.27;;;3.07;;
1262;SDS011;62267;50.112;8.704;2023-08-08T12:43:18;3.80;;;2.90;;
1262;SDS011;62267;50.112;8.704;2023-08-08T12:45:45;6.37;;;4.03;;
1262;SDS011;62267;50.112;8.704;2023-08-08T12:48:14;6.23;;;3.13;;
1262;SDS011;62267;50.112;8.704;2023-08-08T12:50:41;6.60;;;2.97;;
1262;SDS011;62267;50.112;8.704;2023-08-08T12:53:08;3.27;;;2.97;;
1262;SDS011;62267;50.112;8.704;2023-08-08T12:55:36;2.97;;;2.77;;
1262;SDS011;62267;50.112;8.704;2023-08-08T12:58:05;3.23;;;2.70;;
1262;SDS011;62267;50.112;8.704;2023-08-08T13:00:32;2.70;;;2.50;;
1262;SDS011;62267;50.112;8.704;2023-08-08T13:03:00;4.83;;;3.30;;
1262;SDS011;62267;50.112;8.704;2023-08-08T13:05:28;3.43;;;2.70;;
1262;SDS011;62267;50.112;8.704;2023-08-08T13:07:56;4.50;;;2.50;;
1262;SDS011;62267;50.112;8.704;2023-08-08T13:10:23;5.07;;;3.03;;
1262;SDS011;62267;50.112;8.704;2023-08-08T13:12:51;2.97;;;2.77;;
1262;SDS011;62267;50.112;8.704;2023-08-08T13:15:18;4.33;;;3.10;;
1262;SDS011;62267;50.112;8.704;2023-08-08T13:17:45;3.10;;;2.60;;
1262;SDS011;62267;50.112;8.704;2023-08-08T13:20:13;4.43;;;3.00;;
1262;SDS011;62267;50.112;8.704;2023-08-08T13:22:40;3.67;;;2.87;;
1262;SDS011;62267;50.112;8.704;2023-08-08T13:25:09;3.80;;;2.90;;
1262;SDS011;62267;50.112;8.704;2023-08-08T13:27:36;4.17;;;3.30;;
1262;SDS011;62267;50.112;8.704;2023-08-08T13:30:04;3.63;;;2.90;;
1262;SDS011;62267;50.112;8.704;2023-08-08T13:32:32;4.53;;;3.37;;
1262;SDS011;62267;50.112;8.704;2023-08-08T13:35:00;5.77;;;3.10;;
1262;SDS011;62267;50.112;8.704;2023-08-08T13:37:27;5.33;;;3.13;;
1262;SDS011;62267;50.112;8.704;2023-08-08T13:39:54;2.90;;;2.70;;
1262;SDS011;62267;50.112;8.704;2023-08-08T13:42:22;5.23;;;2.60;;
1262;SDS011;62267;50.112;8.704;2023-08-08T13:44:49;3.20;;;3.00;;
1262;SDS011;62267;50.112;8.704;2023-08-08T13:47:18;3.03;;;2.83;;
1262;SDS011;62267;50.112;8.704;2023-08-08T13:49:45;3.83;;;3.47;;
1262;SDS011;62267;50.112;8.704;2023-08-08T13:52:12;5.07;;;2.77;;
1262;SDS011;62267;50.112;8.704;2023-08-08T13:54:40;5.93;;;2.90;;
1262;SDS011;62267;50.112;8.704;2023-08-08T13:57:07;5.40;;;3.77;;
1262;SDS011;62267;50.112;8.704;2023-08-08T13:59:34;2.77;;;2.20;;
1262;SDS011;62267;50.112;8.704;2023-08-08T14:02:02;3.50;;;3.20;;
1262;SDS011;62267;50.112;8.704;2023-08-08T14:04:30;2.97;;;2.77;;
1262;SDS011;62267;50.112;8.704;2023-08-08T14:06:57;3.37;;;2.73;;
1262;SDS011;62267;50.112;8.704;2023-08-08T14:09:24;3.40;;;3.03;;
1262;SDS011;62267;50.112;8.704;2023-08-08T14:11:52;4.23;;;2.63;;
1262;SDS011;62267;50.112;8.704;2023-08-08T14:14:19;4.00;;;2.63;;
1262;SDS011;62267;50.112;8.704;2023-08-08T14:16:46;3.10;;;2.53;;
1262;SDS011;62267;50.112;8.704;2023-08-08T14:19:14;3.90;;;2.83;;
1262;SDS011;62267;50.112;8.704;2023-08-08T14:21:43;4.00;;;2.97;;
1262;SDS011;62267;50.112;8.704;2023-08-08T14:24:10;3.43;;;2.60;;
1262;SDS011;62267;50.112;8.704;2023-08-08T14:26:37;6.57;;;3.00;;
1262;SDS011;62267;50.112;8.704;2023-08-08T14:29:05;2.30;;;2.20;;
1262;SDS011;62267;50.112;8.704;2023-08-08T14:31:32;3.27;;;2.43;;
1262;SDS011;62267;50.112;8.704;2023-08-08T14:34:11;2.83;;;2.63;;
1262;SDS011;62267;50.112;8.704;2023-08-08T14:36:39;3.33;;;3.03;;
1262;SDS011;62267;50.112;8.704;2023-08-08T14:39:06;2.70;;;2.50;;
1262;SDS011;62267;50.112;8.704;2023-08-08T14:41:33;5.80;;;2.67;;
1262;SDS011;62267;50.112;8.704;2023-08-08T14:44:01;3.93;;;2.70;;
1262;SDS011;62267;50.112;8.704;2023-08-08T14:46:28;2.90;;;2.70;;
1262;SDS011;62267;50.112;8.704;2023-08-08T14:48:56;4.57;;;3.10;;
1262;SDS011;62267;50.112;8.704;2023-08-08T14:51:23;3.20;;;2.83;;
1262;SDS011;62267;50.112;8.704;2023-08-08T14:53:51;7.13;;;2.77;;
1262;SDS011;62267;50.112;8.704;2023-08-08T14:56:18;3.03;;;2.80;;
1262;SDS011;62267;50.112;8.704;2023-08-08T14:58:45;2.60;;;2.40;;
1262;SDS011;62267;50.112;8.704;2023-08-08T15:01:12;7.07;;;2.90;;
1262;SDS011;62267;50.112;8.704;2023-08-08T15:03:40;5.83;;;3.03;;
1262;SDS011;62267;50.112;8.704;2023-08-08T15:06:08;3.57;;;2.10;;
1262;SDS011;62267;50.112;8.704;2023-08-08T15:08:36;4.00;;;2.60;;